KRCA/RCA METAR and TAF weather

Enter ICAO airport designator
Station Type Date Time Source
KRCA METAR 2019/10/19 06:56 UTC NOAA

KRCA 190656Z AUTO 28009KT 10SM CLR 03/M02 A2977 RMK AO2 SLP092 T00321023 401460022 $


Station Type Date Time Source
KRCA Decoded METAR 2019/10/19 06:56 UTC NOAA

Ellsworth Air Force Base, SD, United States (KRCA) 44-09N 103-06W
Oct 19, 2019 - 02:56 AM EDT / 2019.10.19 0656 UTC
Wind: from the W (280 degrees) at 10 MPH (9 KT):0
Visibility: 10 mile(s):0
Sky conditions: clear
Temperature: 37.8 F (3.2 C)
Dew Point: 27.9 F (-2.3 C)
Relative Humidity: 67%
Pressure (altimeter): 29.77 in. Hg (1008 hPa)
ob: KRCA 190656Z AUTO 28009KT 10SM CLR 03/M02 A2977 RMK AO2 SLP092 T00321023 401460022
cycle: 7

Station Type Date Time Source
KRCA TAF 2019/10/18 20:50 UTC NOAA

TAF
AMD KRCA 182035Z 1820/2001 32012KT 9999 BKN075 QNH2965INS
BECMG 1822/1823 33009KT 9999 SCT050 QNH2970INS
BECMG 1915/1916 18012KT 9999 SCT050 QNH2965INS
BECMG 1923/1924 30009KT 9999 FEW050 QNH2973INS TX13/1821Z TN04/1911Z

Example: see airport list